KLFI/LFI METAR and TAF weather

Enter ICAO airport designator
Station Type Date Time Source
KLFI METAR 2022/01/26 18:56 UTC NOAA

KLFI 261856Z 07014KT 10SM FEW250 01/M07 A3033 RMK AO2A SLP277 T00141069 $


Station Type Date Time Source
KLFI Decoded METAR 2022/01/26 18:56 UTC NOAA

Langley Air Force Base, VA, United States (KLFI) 37-05N 076-21W 6M
Jan 26, 2022 - 01:56 PM EST / 2022.01.26 1856 UTC
Wind: from the ENE (070 degrees) at 16 MPH (14 KT):0
Visibility: 10 mile(s):0
Sky conditions: mostly clear
Temperature: 34.5 F (1.4 C)
Windchill: 24 F (-4 C):1
Dew Point: 19.6 F (-6.9 C)
Relative Humidity: 53%
Pressure (altimeter): 30.33 in. Hg (1027 hPa)
ob: KLFI 261856Z 07014KT 10SM FEW250 01/M07 A3033 RMK AO2A SLP277 T00141069
cycle: 19

Station Type Date Time Source
KLFI TAF 2022/01/26 18:54 UTC NOAA

TAF TAF KLFI 261800Z 2618/2724 36012G18KT 9999 FEW180 SCT240 QNH3034INS
BECMG 2700/2701 04009KT 9999 SKC QNH3038INS TX01/2618Z TNM03/2710Z

Example: see airport list